Time;durP1;ratioP1;P1;durP2;ratioP2;P2;SDS_P1;SDS_P2;PMS_P1;PMS_P2;Temp;Humidity;BMP_temperature;BMP_pressure;BME280_temperature;BME280_humidity;BME280_pressure;Samples;Min_cycle;Max_cycle;Signal;HPM_P1;HPM_P2
2022/03/22 00:01:24;;;;;;;;;;;21.90;25.00;;;;;;4837756;29;20360;-71
2022/03/22 00:03:52;;;;;;;;;;;21.90;25.00;;;;;;4838428;29;20297;-72
2022/03/22 00:06:19;;;;;;;;;;;21.80;24.90;;;;;;4837563;29;20237;-71
2022/03/22 00:08:47;;;;;;;;;;;21.80;25.00;;;;;;4834096;29;19929;-72
2022/03/22 00:11:14;;;;;;;;;;;21.80;25.00;;;;;;4837708;29;20043;-72
2022/03/22 00:13:43;;;;;;;;;;;21.90;25.00;;;;;;4838074;29;19972;-73
2022/03/22 00:16:12;;;;;;;;;;;21.80;25.00;;;;;;4837153;29;19932;-72
2022/03/22 00:18:59;;;;;;;;;;;21.80;25.00;;;;;;4837534;29;20019;-70
2022/03/22 00:21:26;;;;;;;;;;;21.80;25.00;;;;;;4838383;29;20329;-71
2022/03/22 00:23:54;;;;;;;;;;;21.80;25.00;;;;;;4837016;29;19971;-71
2022/03/22 00:26:21;;;;;;;;;;;21.80;25.00;;;;;;4837976;29;19977;-72
2022/03/22 00:28:48;;;;;;;;;;;21.80;25.00;;;;;;4837790;29;19940;-72
2022/03/22 00:31:16;;;;;;;;;;;21.80;25.00;;;;;;4837045;29;20334;-71
2022/03/22 00:33:43;;;;;;;;;;;21.80;25.00;;;;;;4837672;29;19928;-72
2022/03/22 00:36:10;;;;;;;;;;;21.80;25.00;;;;;;4837558;29;19929;-72
2022/03/22 00:38:37;;;;;;;;;;;21.80;25.00;;;;;;4837672;29;19935;-72
2022/03/22 00:41:04;;;;;;;;;;;21.80;25.00;;;;;;4833514;29;19960;-71
2022/03/22 00:43:34;;;;;;;;;;;21.80;25.00;;;;;;4837637;29;19968;-72
2022/03/22 00:46:02;;;;;;;;;;;21.80;25.00;;;;;;4837558;29;19932;-71
2022/03/22 00:48:29;;;;;;;;;;;21.80;25.00;;;;;;4836757;29;19928;-71
2022/03/22 00:50:56;;;;;;;;;;;21.80;25.00;;;;;;4837074;29;20457;-71
2022/03/22 00:53:24;;;;;;;;;;;21.80;25.00;;;;;;4836376;29;19971;-71
2022/03/22 00:55:51;;;;;;;;;;;21.80;25.00;;;;;;4837526;29;20343;-71
2022/03/22 00:58:19;;;;;;;;;;;21.80;25.00;;;;;;4837025;29;20019;-71
2022/03/22 01:00:48;;;;;;;;;;;21.70;24.90;;;;;;4837189;29;19960;-71
2022/03/22 01:03:15;;;;;;;;;;;21.80;25.00;;;;;;4836822;29;19943;-72
2022/03/22 01:05:42;;;;;;;;;;;21.70;25.00;;;;;;4836879;29;19992;-71
2022/03/22 01:08:10;;;;;;;;;;;21.80;25.00;;;;;;4836678;29;19979;-71
2022/03/22 01:10:38;;;;;;;;;;;21.70;25.00;;;;;;4835541;29;20355;-71
2022/03/22 01:13:06;;;;;;;;;;;21.70;25.00;;;;;;4833510;29;19929;-71
2022/03/22 01:15:34;;;;;;;;;;;21.70;25.00;;;;;;4837362;29;20421;-71
2022/03/22 01:18:05;;;;;;;;;;;21.70;25.00;;;;;;4835483;29;19936;-71
2022/03/22 01:20:36;;;;;;;;;;;21.70;25.00;;;;;;4850849;29;19932;-71
2022/03/22 01:23:04;;;;;;;;;;;21.70;25.00;;;;;;4836253;29;19985;-71
2022/03/22 01:25:32;;;;;;;;;;;21.70;25.00;;;;;;4837208;29;19943;-72
2022/03/22 01:27:59;;;;;;;;;;;21.70;25.00;;;;;;4836888;29;19932;-71
2022/03/22 01:30:26;;;;;;;;;;;21.70;25.00;;;;;;4836054;29;20405;-71
2022/03/22 01:32:54;;;;;;;;;;;21.70;25.00;;;;;;4836462;29;19936;-74
2022/03/22 01:35:23;;;;;;;;;;;21.70;25.00;;;;;;4836180;29;19929;-71
2022/03/22 01:37:51;;;;;;;;;;;21.70;25.00;;;;;;4836162;29;19976;-71
2022/03/22 01:40:19;;;;;;;;;;;21.70;25.00;;;;;;4836597;29;19939;-71
2022/03/22 01:42:46;;;;;;;;;;;21.70;25.00;;;;;;4845694;29;20040;-71
2022/03/22 01:45:13;;;;;;;;;;;21.70;25.00;;;;;;4836940;29;19932;-71
2022/03/22 01:47:45;;;;;;;;;;;21.70;25.00;;;;;;4835867;29;19932;-71
2022/03/22 01:50:14;;;;;;;;;;;21.70;25.00;;;;;;4836579;29;19935;-71
2022/03/22 01:52:43;;;;;;;;;;;21.70;25.10;;;;;;4836278;29;20093;-71
2022/03/22 01:55:14;;;;;;;;;;;21.70;25.10;;;;;;4836290;29;19981;-72
2022/03/22 01:57:41;;;;;;;;;;;21.70;25.10;;;;;;4835934;29;20034;-71
2022/03/22 02:00:10;;;;;;;;;;;21.60;25.00;;;;;;4836127;29;19928;-71
2022/03/22 02:08:12;;;;;;;;;;;21.60;25.10;;;;;;4835539;29;20351;-71
2022/03/22 02:10:39;;;;;;;;;;;21.60;25.10;;;;;;4850251;29;20143;-71
2022/03/22 02:13:06;;;;;;;;;;;21.60;25.10;;;;;;4833638;29;20499;-71
2022/03/22 02:15:33;;;;;;;;;;;21.60;25.00;;;;;;4833058;29;20008;-71
2022/03/22 02:18:00;;;;;;;;;;;21.60;25.10;;;;;;4835112;29;19940;-73
2022/03/22 02:20:28;;;;;;;;;;;21.60;25.00;;;;;;4836021;29;20031;-71
2022/03/22 02:22:59;;;;;;;;;;;21.60;25.00;;;;;;4836154;29;19928;-71
2022/03/22 02:25:26;;;;;;;;;;;21.60;25.00;;;;;;4835716;29;19975;-71
2022/03/22 02:27:53;;;;;;;;;;;21.60;25.00;;;;;;4835754;29;19928;-71
2022/03/22 02:30:20;;;;;;;;;;;21.60;25.00;;;;;;4835475;29;19978;-71
2022/03/22 02:32:48;;;;;;;;;;;21.60;25.00;;;;;;4835888;29;19929;-71
2022/03/22 02:35:15;;;;;;;;;;;21.60;25.00;;;;;;4834930;29;20310;-71
2022/03/22 02:37:42;;;;;;;;;;;21.60;25.00;;;;;;4835559;29;19968;-71
2022/03/22 02:40:10;;;;;;;;;;;21.60;25.00;;;;;;4835776;29;20192;-71
2022/03/22 02:42:37;;;;;;;;;;;21.60;25.00;;;;;;4834963;29;20466;-72
2022/03/22 02:45:04;;;;;;;;;;;21.50;25.00;;;;;;4833464;29;19972;-71
2022/03/22 02:47:31;;;;;;;;;;;21.50;25.00;;;;;;4832676;29;20584;-71
2022/03/22 02:49:58;;;;;;;;;;;21.60;25.00;;;;;;4834744;29;19987;-71
2022/03/22 02:52:25;;;;;;;;;;;21.60;25.00;;;;;;4835407;29;19984;-71
2022/03/22 02:54:52;;;;;;;;;;;21.60;25.00;;;;;;4834709;29;19975;-71
2022/03/22 02:57:19;;;;;;;;;;;21.60;25.00;;;;;;4835432;29;19933;-71
2022/03/22 02:59:45;;;;;;;;;;;21.60;25.00;;;;;;4835285;29;19928;-71
2022/03/22 03:02:12;;;;;;;;;;;21.50;25.00;;;;;;4834791;29;19928;-71
2022/03/22 03:04:40;;;;;;;;;;;21.60;25.00;;;;;;4834563;29;20353;-71
2022/03/22 03:07:07;;;;;;;;;;;21.50;25.00;;;;;;4834900;29;19929;-71
2022/03/22 03:09:34;;;;;;;;;;;21.50;25.00;;;;;;4835205;29;20019;-71
2022/03/22 03:12:01;;;;;;;;;;;21.50;25.00;;;;;;4834936;29;20318;-71
2022/03/22 03:14:41;;;;;;;;;;;21.50;25.00;;;;;;4834627;29;19964;-71
2022/03/22 03:17:10;;;;;;;;;;;21.50;25.00;;;;;;4830863;29;20554;-71
2022/03/22 03:19:37;;;;;;;;;;;21.50;25.00;;;;;;4834063;29;19932;-71
2022/03/22 03:22:04;;;;;;;;;;;21.50;25.00;;;;;;4835002;29;19975;-71
2022/03/22 03:24:32;;;;;;;;;;;21.50;25.00;;;;;;4834498;29;20386;-71
2022/03/22 03:26:59;;;;;;;;;;;21.50;25.00;;;;;;4834884;29;19977;-72
2022/03/22 03:29:26;;;;;;;;;;;21.50;25.00;;;;;;4834611;29;19985;-71
2022/03/22 03:31:53;;;;;;;;;;;21.50;25.00;;;;;;4834785;29;20023;-71
2022/03/22 03:34:20;;;;;;;;;;;21.50;25.00;;;;;;4834819;29;20374;-72
2022/03/22 03:36:47;;;;;;;;;;;21.50;25.00;;;;;;4834209;29;20234;-72
2022/03/22 03:39:15;;;;;;;;;;;21.50;25.10;;;;;;4835040;29;19979;-72
2022/03/22 03:41:57;;;;;;;;;;;21.50;25.10;;;;;;4834857;29;19932;-71
2022/03/22 03:47:19;;;;;;;;;;;21.40;25.00;;;;;;4846214;29;20340;-72
2022/03/22 03:49:48;;;;;;;;;;;21.40;25.00;;;;;;4829657;29;19928;-72
2022/03/22 03:52:20;;;;;;;;;;;21.40;25.10;;;;;;4834504;29;19937;-73
2022/03/22 03:54:47;;;;;;;;;;;21.40;25.10;;;;;;4834314;29;19972;-71
2022/03/22 03:57:14;;;;;;;;;;;21.40;25.20;;;;;;4834826;29;20371;-72
2022/03/22 03:59:42;;;;;;;;;;;21.40;25.20;;;;;;4834285;29;20553;-72
2022/03/22 04:02:10;;;;;;;;;;;21.40;25.20;;;;;;4834462;29;19985;-72
2022/03/22 04:04:38;;;;;;;;;;;21.40;25.20;;;;;;4834627;29;20023;-72
2022/03/22 04:07:06;;;;;;;;;;;21.40;25.30;;;;;;4833744;29;20019;-72
2022/03/22 04:09:34;;;;;;;;;;;21.40;25.30;;;;;;4834894;29;20011;-72
2022/03/22 04:12:01;;;;;;;;;;;21.40;25.30;;;;;;4834186;29;19987;-73
2022/03/22 04:14:28;;;;;;;;;;;21.40;25.30;;;;;;4834968;29;20296;-71
2022/03/22 04:16:58;;;;;;;;;;;21.40;25.40;;;;;;4848594;29;19929;-72
2022/03/22 04:19:26;;;;;;;;;;;21.40;25.40;;;;;;4832057;29;19928;-72
2022/03/22 04:21:53;;;;;;;;;;;21.40;25.50;;;;;;4833063;29;20015;-72
2022/03/22 04:24:20;;;;;;;;;;;21.40;25.50;;;;;;4834394;29;19987;-72
2022/03/22 04:26:47;;;;;;;;;;;21.40;25.50;;;;;;4834920;29;20090;-72
2022/03/22 04:34:49;;;;;;;;;;;21.40;25.60;;;;;;4837799;29;20015;-72
2022/03/22 04:37:16;;;;;;;;;;;21.40;25.60;;;;;;4836673;29;20027;-72
2022/03/22 04:39:45;;;;;;;;;;;21.40;25.60;;;;;;4838155;29;19978;-72
2022/03/22 04:42:15;;;;;;;;;;;21.40;25.60;;;;;;4832437;29;20481;-72
2022/03/22 04:44:43;;;;;;;;;;;21.40;25.50;;;;;;4825787;29;20036;-72
2022/03/22 04:47:10;;;;;;;;;;;21.40;25.50;;;;;;4826775;29;19936;-72
2022/03/22 04:49:37;;;;;;;;;;;21.40;25.50;;;;;;4822690;29;20458;-72
2022/03/22 05:01:00;;;;;;;;;;;21.40;25.30;;;;;;4843176;29;19923;-72
2022/03/22 05:03:27;;;;;;;;;;;21.40;25.20;;;;;;4843322;29;20389;-74
2022/03/22 05:08:40;;;;;;;;;;;21.40;25.20;;;;;;4844269;29;19972;-72
2022/03/22 05:11:07;;;;;;;;;;;21.40;25.20;;;;;;4843853;29;20019;-72
2022/03/22 05:13:34;;;;;;;;;;;21.40;25.20;;;;;;4843997;29;20341;-71
2022/03/22 05:16:03;;;;;;;;;;;21.40;25.20;;;;;;4843588;29;19974;-72
2022/03/22 05:18:30;;;;;;;;;;;21.40;25.70;;;;;;4843890;29;20285;-74
2022/03/22 05:20:57;;;;;;;;;;;21.40;25.20;;;;;;4843671;29;20413;-72
2022/03/22 05:23:24;;;;;;;;;;;21.40;25.20;;;;;;4839361;29;19932;-72
2022/03/22 05:25:51;;;;;;;;;;;21.40;25.20;;;;;;4843766;29;20065;-71
2022/03/22 05:28:18;;;;;;;;;;;21.40;25.20;;;;;;4843743;29;19977;-72
2022/03/22 05:30:45;;;;;;;;;;;21.40;25.20;;;;;;4843425;29;19929;-71
2022/03/22 05:33:12;;;;;;;;;;;21.40;25.20;;;;;;4842187;29;19935;-71
2022/03/22 05:35:39;;;;;;;;;;;21.50;25.20;;;;;;4843515;29;20011;-72
2022/03/22 05:38:06;;;;;;;;;;;21.50;25.30;;;;;;4842737;29;19967;-72
2022/03/22 05:40:33;;;;;;;;;;;21.50;25.20;;;;;;4843265;29;20022;-74
2022/03/22 05:43:00;;;;;;;;;;;21.50;25.20;;;;;;4843458;29;20023;-72
2022/03/22 05:45:27;;;;;;;;;;;21.50;25.20;;;;;;4843183;29;20036;-72
2022/03/22 05:47:54;;;;;;;;;;;21.50;25.20;;;;;;4834213;29;20031;-72
2022/03/22 05:50:21;;;;;;;;;;;21.50;25.20;;;;;;4828504;29;20023;-71
2022/03/22 05:52:49;;;;;;;;;;;21.50;25.20;;;;;;4842931;29;20267;-72
2022/03/22 05:55:17;;;;;;;;;;;21.50;25.20;;;;;;4832108;29;19977;-72
2022/03/22 05:57:44;;;;;;;;;;;21.50;25.10;;;;;;4831145;29;19929;-71
2022/03/22 06:00:12;;;;;;;;;;;21.50;25.10;;;;;;4835418;29;20028;-71
2022/03/22 06:02:39;;;;;;;;;;;21.60;25.10;;;;;;4828188;29;19975;-72
2022/03/22 06:05:08;;;;;;;;;;;21.50;25.10;;;;;;4836962;29;19975;-72
2022/03/22 06:07:39;;;;;;;;;;;21.60;25.10;;;;;;4828252;29;19985;-70
2022/03/22 06:10:06;;;;;;;;;;;21.60;25.00;;;;;;4842442;29;20331;-70
2022/03/22 06:12:41;;;;;;;;;;;21.60;24.90;;;;;;4836229;29;19982;-70
2022/03/22 06:15:16;;;;;;;;;;;21.60;24.80;;;;;;4839700;29;19985;-70
2022/03/22 06:17:44;;;;;;;;;;;21.60;24.70;;;;;;4830304;29;19939;-66
2022/03/22 06:20:11;;;;;;;;;;;21.60;24.70;;;;;;4834469;29;19929;-70
2022/03/22 06:22:38;;;;;;;;;;;21.60;24.90;;;;;;4836248;29;19928;-69
2022/03/22 06:25:05;;;;;;;;;;;21.60;25.00;;;;;;4830416;29;19932;-69
2022/03/22 06:27:35;;;;;;;;;;;21.70;25.10;;;;;;4828661;29;19929;-67
2022/03/22 06:30:03;;;;;;;;;;;21.70;25.10;;;;;;4831127;29;19933;-67
2022/03/22 06:32:30;;;;;;;;;;;21.70;25.10;;;;;;4834250;29;19933;-69
2022/03/22 06:34:57;;;;;;;;;;;21.70;25.10;;;;;;4830681;29;20019;-68
2022/03/22 06:37:24;;;;;;;;;;;21.80;25.10;;;;;;4824823;29;19966;-69
2022/03/22 06:43:14;;;;;;;;;;;21.90;25.00;;;;;;4800955;29;19954;-69
2022/03/22 06:45:42;;;;;;;;;;;22.00;25.40;;;;;;4822360;29;19944;-69
2022/03/22 06:48:09;;;;;;;;;;;21.90;24.90;;;;;;4820989;29;19936;-66
2022/03/22 06:50:37;;;;;;;;;;;22.10;24.90;;;;;;4820278;29;19932;-70
2022/03/22 06:53:05;;;;;;;;;;;22.10;25.20;;;;;;4820943;29;19940;-70
2022/03/22 06:55:32;;;;;;;;;;;22.20;25.50;;;;;;4815827;29;19932;-73
2022/03/22 06:58:00;;;;;;;;;;;22.20;25.50;;;;;;4819013;29;19936;-74
2022/03/22 07:00:27;;;;;;;;;;;22.30;25.20;;;;;;4819843;29;20024;-70
2022/03/22 07:02:55;;;;;;;;;;;22.40;25.00;;;;;;4824274;29;20731;-69
2022/03/22 07:05:23;;;;;;;;;;;22.50;24.90;;;;;;4820472;29;19981;-68
2022/03/22 07:07:50;;;;;;;;;;;22.50;25.20;;;;;;4827572;29;20439;-68
2022/03/22 07:10:18;;;;;;;;;;;22.60;25.00;;;;;;4826516;29;19943;-68
2022/03/22 07:12:59;;;;;;;;;;;22.70;25.30;;;;;;4823018;29;20344;-67
2022/03/22 07:15:27;;;;;;;;;;;22.80;25.30;;;;;;4824879;29;19932;-68
2022/03/22 07:18:01;;;;;;;;;;;22.80;25.40;;;;;;4826347;29;19963;-68
2022/03/22 07:20:28;;;;;;;;;;;22.90;25.40;;;;;;4824013;29;19972;-68
2022/03/22 07:22:58;;;;;;;;;;;23.00;25.50;;;;;;4821244;29;19936;-68
2022/03/22 07:25:25;;;;;;;;;;;23.00;25.30;;;;;;4821697;29;20028;-67
2022/03/22 07:27:54;;;;;;;;;;;23.00;24.90;;;;;;4818946;29;20352;-68
2022/03/22 07:30:22;;;;;;;;;;;23.20;24.70;;;;;;4823989;29;20417;-67
2022/03/22 07:32:49;;;;;;;;;;;23.20;24.50;;;;;;4821608;29;19963;-66
2022/03/22 07:35:19;;;;;;;;;;;23.20;24.40;;;;;;4822830;29;19941;-69
2022/03/22 07:37:48;;;;;;;;;;;23.30;24.40;;;;;;4823206;29;19955;-65
2022/03/22 07:40:16;;;;;;;;;;;23.30;24.50;;;;;;4820537;29;19936;-64
2022/03/22 07:42:44;;;;;;;;;;;23.40;24.70;;;;;;4821476;29;19943;-61
2022/03/22 07:45:11;;;;;;;;;;;23.50;24.80;;;;;;4818771;29;19968;-61
2022/03/22 07:47:38;;;;;;;;;;;23.50;24.90;;;;;;4822896;29;19928;-63
2022/03/22 07:53:05;;;;;;;;;;;23.60;24.80;;;;;;4823230;29;20405;-63
2022/03/22 07:55:35;;;;;;;;;;;23.70;25.20;;;;;;4824539;29;19985;-63
2022/03/22 07:58:05;;;;;;;;;;;23.80;24.70;;;;;;4825416;29;20409;-62
2022/03/22 08:00:38;;;;;;;;;;;23.80;24.50;;;;;;4818287;29;20028;-63
2022/03/22 08:03:09;;;;;;;;;;;23.90;24.40;;;;;;4823806;29;19936;-62
2022/03/22 08:05:37;;;;;;;;;;;23.90;24.40;;;;;;4827743;29;19929;-62
2022/03/22 08:08:05;;;;;;;;;;;24.00;24.60;;;;;;4828598;29;19936;-62
2022/03/22 08:10:52;;;;;;;;;;;24.00;24.30;;;;;;4824649;29;19939;-62
2022/03/22 08:13:19;;;;;;;;;;;24.10;24.30;;;;;;4826181;29;20071;-63
2022/03/22 08:15:46;;;;;;;;;;;24.10;24.30;;;;;;4826135;29;20035;-62
2022/03/22 08:18:13;;;;;;;;;;;24.10;24.20;;;;;;4825370;29;19985;-64
2022/03/22 08:20:40;;;;;;;;;;;24.20;24.20;;;;;;4826985;29;19977;-63
2022/03/22 08:23:09;;;;;;;;;;;24.20;24.30;;;;;;4825615;29;19928;-65
2022/03/22 08:25:37;;;;;;;;;;;24.20;24.30;;;;;;4823946;29;20031;-63
2022/03/22 08:28:06;;;;;;;;;;;24.30;24.20;;;;;;4825784;29;20002;-64
2022/03/22 08:30:33;;;;;;;;;;;24.30;24.20;;;;;;4822068;29;20103;-66
2022/03/22 08:33:03;;;;;;;;;;;24.40;24.20;;;;;;4822379;29;19972;-62
2022/03/22 08:35:30;;;;;;;;;;;24.50;24.20;;;;;;4825786;29;19947;-62
2022/03/22 08:37:57;;;;;;;;;;;24.50;24.60;;;;;;4824376;29;19937;-62
2022/03/22 08:40:24;;;;;;;;;;;24.50;24.20;;;;;;4826134;29;19964;-66
2022/03/22 08:42:55;;;;;;;;;;;24.50;24.30;;;;;;4826661;29;19956;-63
2022/03/22 08:45:23;;;;;;;;;;;24.60;24.40;;;;;;4825993;29;20012;-63
2022/03/22 08:47:51;;;;;;;;;;;24.70;24.60;;;;;;4829697;29;19937;-62
2022/03/22 08:50:23;;;;;;;;;;;24.70;24.80;;;;;;4826201;29;20412;-65
2022/03/22 08:52:50;;;;;;;;;;;24.70;24.80;;;;;;4830005;29;20289;-63
2022/03/22 08:55:18;;;;;;;;;;;24.80;24.80;;;;;;4828777;29;20001;-64
2022/03/22 08:57:47;;;;;;;;;;;24.80;24.90;;;;;;4828758;29;20052;-63
2022/03/22 09:00:15;;;;;;;;;;;24.90;24.90;;;;;;4826882;29;19979;-65
2022/03/22 09:02:42;;;;;;;;;;;24.90;24.80;;;;;;4820133;29;20386;-64
2022/03/22 09:07:58;;;;;;;;;;;24.90;24.40;;;;;;4830927;29;19936;-66
2022/03/22 09:10:25;;;;;;;;;;;24.90;24.40;;;;;;4829434;29;20009;-67
2022/03/22 09:12:52;;;;;;;;;;;24.90;24.40;;;;;;4827329;29;19932;-63
2022/03/22 09:15:20;;;;;;;;;;;24.90;24.30;;;;;;4827458;29;20020;-65
2022/03/22 09:17:48;;;;;;;;;;;24.90;24.30;;;;;;4831472;29;19935;-65
2022/03/22 09:20:16;;;;;;;;;;;24.90;24.20;;;;;;4823859;29;19987;-65
2022/03/22 09:22:44;;;;;;;;;;;24.90;24.20;;;;;;4821670;29;19936;-64
2022/03/22 09:25:11;;;;;;;;;;;24.90;24.10;;;;;;4824528;29;19936;-63
2022/03/22 09:27:41;;;;;;;;;;;24.90;24.10;;;;;;4824133;29;19936;-64
2022/03/22 09:30:09;;;;;;;;;;;24.90;24.10;;;;;;4822531;29;20470;-66
2022/03/22 09:32:36;;;;;;;;;;;24.90;24.00;;;;;;4826536;29;19971;-64
2022/03/22 09:35:06;;;;;;;;;;;24.90;24.00;;;;;;4819592;29;20436;-70
2022/03/22 09:37:34;;;;;;;;;;;24.90;24.00;;;;;;4823826;29;20355;-67
2022/03/22 09:40:01;;;;;;;;;;;24.90;23.90;;;;;;4823532;29;20762;-65
2022/03/22 09:42:30;;;;;;;;;;;24.90;23.90;;;;;;4823676;29;20416;-65
2022/03/22 09:45:00;;;;;;;;;;;25.00;24.00;;;;;;4823292;29;19988;-64
2022/03/22 09:47:28;;;;;;;;;;;25.00;24.00;;;;;;4843542;29;19929;-64
2022/03/22 09:49:58;;;;;;;;;;;25.00;24.00;;;;;;4826746;29;19989;-65
2022/03/22 09:52:25;;;;;;;;;;;25.00;23.90;;;;;;4824823;29;19929;-67
2022/03/22 09:54:52;;;;;;;;;;;25.00;24.00;;;;;;4824035;29;19943;-66
2022/03/22 09:57:19;;;;;;;;;;;25.10;24.20;;;;;;4825315;29;19936;-65
2022/03/22 09:59:46;;;;;;;;;;;25.00;24.00;;;;;;4825947;29;19976;-63
2022/03/22 10:02:13;;;;;;;;;;;25.00;23.80;;;;;;4821502;29;20028;-65
2022/03/22 10:04:42;;;;;;;;;;;25.00;23.50;;;;;;4826340;29;19940;-64
2022/03/22 10:07:19;;;;;;;;;;;25.00;23.50;;;;;;4817608;29;20019;-64
2022/03/22 10:09:58;;;;;;;;;;;25.00;23.60;;;;;;4822279;29;19936;-63
2022/03/22 10:12:25;;;;;;;;;;;25.00;23.50;;;;;;4823029;29;19928;-65
2022/03/22 10:14:53;;;;;;;;;;;25.00;23.60;;;;;;4822963;29;19989;-63
2022/03/22 10:17:20;;;;;;;;;;;25.00;23.40;;;;;;4819492;29;19928;-68
2022/03/22 10:19:49;;;;;;;;;;;25.00;23.30;;;;;;4818677;29;19944;-65
2022/03/22 10:22:22;;;;;;;;;;;25.10;23.30;;;;;;4820920;29;20017;-65
2022/03/22 10:24:54;;;;;;;;;;;25.10;23.30;;;;;;4821018;29;19932;-63
2022/03/22 10:27:24;;;;;;;;;;;25.00;23.10;;;;;;4823746;29;20378;-64
2022/03/22 10:30:11;;;;;;;;;;;25.00;23.10;;;;;;4822211;29;19947;-63
2022/03/22 10:32:43;;;;;;;;;;;25.00;23.30;;;;;;4827447;29;20399;-67
2022/03/22 10:35:16;;;;;;;;;;;25.00;24.00;;;;;;4825505;29;20036;-67
2022/03/22 10:37:45;;;;;;;;;;;25.00;23.60;;;;;;4820223;29;19998;-68
2022/03/22 10:40:21;;;;;;;;;;;25.10;23.70;;;;;;4823520;29;19928;-63
2022/03/22 10:42:52;;;;;;;;;;;25.10;23.80;;;;;;4823405;29;19993;-69
2022/03/22 10:45:19;;;;;;;;;;;25.10;23.80;;;;;;4828560;29;19928;-71
2022/03/22 10:47:46;;;;;;;;;;;25.10;23.70;;;;;;4823395;29;19988;-71
2022/03/22 10:50:14;;;;;;;;;;;25.10;23.70;;;;;;4827921;29;19940;-70
2022/03/22 10:52:48;;;;;;;;;;;25.10;23.70;;;;;;4826652;29;19964;-71
2022/03/22 10:55:19;;;;;;;;;;;25.10;23.70;;;;;;4820716;29;19932;-72
2022/03/22 10:57:47;;;;;;;;;;;25.10;23.60;;;;;;4826856;29;19936;-71
2022/03/22 11:00:14;;;;;;;;;;;25.10;23.60;;;;;;4825755;29;19936;-74
2022/03/22 11:02:42;;;;;;;;;;;25.10;23.70;;;;;;4826921;29;19961;-75
2022/03/22 11:05:09;;;;;;;;;;;25.20;23.70;;;;;;4826244;29;19932;-74
2022/03/22 11:07:39;;;;;;;;;;;25.20;24.00;;;;;;4825758;29;20351;-73
2022/03/22 11:10:06;;;;;;;;;;;25.20;24.00;;;;;;4824351;29;20031;-75
2022/03/22 11:12:34;;;;;;;;;;;25.20;23.90;;;;;;4826340;29;19929;-75
2022/03/22 11:15:02;;;;;;;;;;;25.20;23.70;;;;;;4823248;29;19975;-75
2022/03/22 11:17:34;;;;;;;;;;;25.20;23.60;;;;;;4823787;29;19972;-75
2022/03/22 11:20:06;;;;;;;;;;;25.20;23.50;;;;;;4826050;29;19975;-74
2022/03/22 11:22:33;;;;;;;;;;;25.20;23.30;;;;;;4822109;29;20032;-75
2022/03/22 11:25:07;;;;;;;;;;;25.30;23.30;;;;;;4823616;29;19985;-75
2022/03/22 11:27:35;;;;;;;;;;;25.30;23.10;;;;;;4828136;29;20352;-74
2022/03/22 11:30:03;;;;;;;;;;;25.30;22.90;;;;;;4825634;29;19957;-70
2022/03/22 11:35:24;;;;;;;;;;;25.30;22.90;;;;;;4828166;29;20027;-73
2022/03/22 11:38:00;;;;;;;;;;;25.30;22.80;;;;;;4830150;29;19933;-73
2022/03/22 11:43:15;;;;;;;;;;;25.30;22.80;;;;;;4831462;29;19991;-70
2022/03/22 11:45:48;;;;;;;;;;;25.30;22.80;;;;;;4830457;29;19985;-72
2022/03/22 11:48:16;;;;;;;;;;;25.30;22.80;;;;;;4831793;29;20492;-73
2022/03/22 11:50:44;;;;;;;;;;;25.30;19.90;;;;;;4828185;29;20002;-73
2022/03/22 11:53:18;;;;;;;;;;;25.10;20.70;;;;;;4827725;29;19936;-78
2022/03/22 11:55:52;;;;;;;;;;;25.10;20.20;;;;;;4832476;29;19932;-68
2022/03/22 11:58:26;;;;;;;;;;;25.00;19.60;;;;;;4830219;29;20016;-69
2022/03/22 12:01:15;;;;;;;;;;;24.80;18.70;;;;;;4838344;29;19937;-71
2022/03/22 12:03:49;;;;;;;;;;;24.70;20.10;;;;;;4828509;29;19937;-70
2022/03/22 12:06:17;;;;;;;;;;;24.60;20.70;;;;;;4826025;29;19975;-71
2022/03/22 12:08:44;;;;;;;;;;;24.60;21.10;;;;;;4826765;29;20020;-72
2022/03/22 12:11:16;;;;;;;;;;;24.60;21.50;;;;;;4827462;29;19997;-70
2022/03/22 12:13:44;;;;;;;;;;;24.70;21.60;;;;;;4823446;29;19936;-70
2022/03/22 12:16:11;;;;;;;;;;;24.70;21.80;;;;;;4827522;29;20411;-72
2022/03/22 12:18:39;;;;;;;;;;;24.80;22.60;;;;;;4825775;29;19929;-71
2022/03/22 12:21:17;;;;;;;;;;;24.90;22.50;;;;;;4825760;29;19985;-71
2022/03/22 12:23:45;;;;;;;;;;;24.90;22.80;;;;;;4825432;29;19985;-73
2022/03/22 12:26:12;;;;;;;;;;;25.00;22.90;;;;;;4826180;29;20024;-72
2022/03/22 12:28:47;;;;;;;;;;;25.00;22.90;;;;;;4823344;29;19928;-66
2022/03/22 12:31:14;;;;;;;;;;;25.10;23.10;;;;;;4826533;29;19937;-71
2022/03/22 12:33:51;;;;;;;;;;;25.10;23.10;;;;;;4830104;29;19963;-72
2022/03/22 12:36:19;;;;;;;;;;;25.10;23.10;;;;;;4829806;29;19932;-71
2022/03/22 12:38:46;;;;;;;;;;;25.20;23.00;;;;;;4827353;29;19948;-70
2022/03/22 12:41:13;;;;;;;;;;;25.20;23.00;;;;;;4828477;29;20406;-70
2022/03/22 12:43:45;;;;;;;;;;;25.20;23.00;;;;;;4822553;29;19961;-70
2022/03/22 12:46:12;;;;;;;;;;;25.30;23.00;;;;;;4823259;29;19936;-67
2022/03/22 12:48:40;;;;;;;;;;;25.30;23.10;;;;;;4824709;29;19947;-67
2022/03/22 12:51:08;;;;;;;;;;;25.30;23.10;;;;;;4830002;29;20019;-69
2022/03/22 12:53:35;;;;;;;;;;;25.40;23.20;;;;;;4833113;29;19929;-70
2022/03/22 12:56:12;;;;;;;;;;;25.40;23.10;;;;;;4828289;29;19959;-73
2022/03/22 12:58:38;;;;;;;;;;;25.40;23.10;;;;;;4824323;29;19988;-73
2022/03/22 13:01:05;;;;;;;;;;;25.40;22.90;;;;;;4836226;29;20464;-66
2022/03/22 13:03:33;;;;;;;;;;;25.40;22.80;;;;;;4825824;29;20401;-67
2022/03/22 13:06:00;;;;;;;;;;;25.50;22.60;;;;;;4828032;29;19933;-66
2022/03/22 13:11:32;;;;;;;;;;;25.50;22.60;;;;;;4822999;29;19985;-66
2022/03/22 13:16:53;;;;;;;;;;;25.50;22.70;;;;;;4824529;29;20438;-67
2022/03/22 13:19:29;;;;;;;;;;;25.50;22.70;;;;;;4823600;29;20019;-67
2022/03/22 13:21:56;;;;;;;;;;;25.50;22.80;;;;;;4829976;29;20008;-69
2022/03/22 13:24:24;;;;;;;;;;;25.50;22.80;;;;;;4827575;29;20336;-66
2022/03/22 13:26:59;;;;;;;;;;;25.50;22.50;;;;;;4828444;29;19928;-69
2022/03/22 13:29:35;;;;;;;;;;;25.50;22.30;;;;;;4824916;29;20521;-66
2022/03/22 13:32:03;;;;;;;;;;;25.50;22.20;;;;;;4828387;29;20449;-64
2022/03/22 13:34:31;;;;;;;;;;;25.50;21.10;;;;;;4830296;29;19992;-65
2022/03/22 13:37:05;;;;;;;;;;;25.30;19.90;;;;;;4827500;29;19940;-63
2022/03/22 13:39:33;;;;;;;;;;;25.20;20.30;;;;;;4827646;29;20015;-62
2022/03/22 13:42:10;;;;;;;;;;;25.20;20.80;;;;;;4825025;29;19968;-63
2022/03/22 13:44:44;;;;;;;;;;;25.20;21.00;;;;;;4829005;29;19976;-63
2022/03/22 13:47:34;;;;;;;;;;;25.20;21.20;;;;;;4824886;29;20043;-64
2022/03/22 13:50:21;;;;;;;;;;;25.20;21.30;;;;;;4828269;29;19977;-62
2022/03/22 13:53:00;;;;;;;;;;;25.20;21.50;;;;;;4829460;29;19932;-73
2022/03/22 13:55:29;;;;;;;;;;;25.20;21.60;;;;;;4827839;29;19976;-75
2022/03/22 13:57:56;;;;;;;;;;;25.20;21.80;;;;;;4825469;29;19960;-71
2022/03/22 14:00:48;;;;;;;;;;;25.30;21.80;;;;;;4839817;29;19933;-71
2022/03/22 14:03:19;;;;;;;;;;;25.30;21.90;;;;;;4828056;29;19929;-72
2022/03/22 14:05:47;;;;;;;;;;;25.30;22.00;;;;;;4826912;29;20335;-72
2022/03/22 14:08:15;;;;;;;;;;;25.30;22.10;;;;;;4827704;29;20387;-70
2022/03/22 14:10:45;;;;;;;;;;;25.30;22.00;;;;;;4827435;29;19994;-71
2022/03/22 14:13:14;;;;;;;;;;;25.30;22.00;;;;;;4825415;29;19936;-69
2022/03/22 14:15:41;;;;;;;;;;;25.30;22.10;;;;;;4827602;29;19937;-63
2022/03/22 14:18:08;;;;;;;;;;;25.40;22.30;;;;;;4820504;29;20398;-63
2022/03/22 14:20:35;;;;;;;;;;;25.40;22.40;;;;;;4826077;29;20031;-66
2022/03/22 14:23:03;;;;;;;;;;;25.40;22.30;;;;;;4825843;29;19935;-64
2022/03/22 14:25:31;;;;;;;;;;;25.40;22.40;;;;;;4824323;29;19941;-63
2022/03/22 14:27:59;;;;;;;;;;;25.40;22.40;;;;;;4826589;29;19933;-63
2022/03/22 14:30:30;;;;;;;;;;;25.40;22.30;;;;;;4826489;29;19929;-64
2022/03/22 14:33:01;;;;;;;;;;;25.40;22.30;;;;;;4824876;29;20884;-63
2022/03/22 14:38:17;;;;;;;;;;;25.40;22.10;;;;;;4823753;29;20024;-63
2022/03/22 14:40:44;;;;;;;;;;;25.40;22.10;;;;;;4827095;29;20027;-62
2022/03/22 14:43:12;;;;;;;;;;;25.40;21.90;;;;;;4840241;29;19933;-68
2022/03/22 14:45:46;;;;;;;;;;;25.40;21.90;;;;;;4826833;29;19944;-66
2022/03/22 14:48:14;;;;;;;;;;;25.40;21.90;;;;;;4828015;29;20394;-67
2022/03/22 14:50:41;;;;;;;;;;;25.40;22.10;;;;;;4821780;29;19976;-66
2022/03/22 14:58:47;;;;;;;;;;;25.40;22.20;;;;;;4829246;29;19937;-64
2022/03/22 14:58:55;;;;;;;;;;;25.40;22.20;;;;;;4826547;29;19958;-62
2022/03/22 15:01:26;;;;;;;;;;;25.40;22.40;;;;;;4837514;29;20500;-63
2022/03/22 15:03:54;;;;;;;;;;;25.40;22.30;;;;;;4822930;29;19941;-64
2022/03/22 15:06:23;;;;;;;;;;;25.40;22.20;;;;;;4827046;29;20402;-68
2022/03/22 15:08:51;;;;;;;;;;;25.40;22.30;;;;;;4824546;29;20031;-64
2022/03/22 15:11:19;;;;;;;;;;;25.40;22.20;;;;;;4827800;29;19981;-65
2022/03/22 15:13:49;;;;;;;;;;;25.40;22.00;;;;;;4824845;29;19929;-63
2022/03/22 15:16:16;;;;;;;;;;;25.40;21.90;;;;;;4827488;29;20461;-64
2022/03/22 15:18:43;;;;;;;;;;;25.40;22.10;;;;;;4825422;29;19936;-68